createdAt,value
2019-04-16T00:01:23.796Z,101271.56
2019-04-16T00:03:57.880Z,101263.10
2019-04-16T00:06:49.071Z,101264.77
2019-04-16T00:09:31.069Z,101262.85
2019-04-16T00:12:18.193Z,101261.33
2019-04-16T00:14:48.209Z,101256.33
2019-04-16T00:17:17.317Z,101258.28
2019-04-16T00:19:46.375Z,101253.39
2019-04-16T00:22:24.443Z,101255.05
2019-04-16T00:24:55.419Z,101252.88
2019-04-16T00:27:28.239Z,101249.82
2019-04-16T00:29:55.899Z,101245.12
2019-04-16T00:32:29.945Z,101244.17
2019-04-16T00:34:58.975Z,101237.48
2019-04-16T00:37:28.039Z,101233.15
2019-04-16T00:39:57.338Z,101234.21
2019-04-16T00:42:26.401Z,101229.92
2019-04-16T00:44:55.605Z,101232.30
2019-04-16T00:47:24.738Z,101223.89
2019-04-16T00:49:57.568Z,101219.70
2019-04-16T00:52:24.521Z,101220.01
2019-04-16T00:54:54.142Z,101212.73
2019-04-16T00:57:23.573Z,101219.59
2019-04-16T00:59:56.342Z,101217.58
2019-04-16T01:02:23.473Z,101212.38
2019-04-16T01:04:52.513Z,101215.35
2019-04-16T01:07:21.568Z,101212.00
2019-04-16T01:09:50.989Z,101211.94
2019-04-16T01:12:20.009Z,101203.92
2019-04-16T01:14:49.059Z,101204.75
2019-04-16T01:17:18.347Z,101187.69
2019-04-16T01:19:47.718Z,101203.05
2019-04-16T01:22:17.045Z,101203.67
2019-04-16T01:24:46.413Z,101185.29
2019-04-16T01:27:15.951Z,101200.73
2019-04-16T01:29:45.014Z,101197.70
2019-04-16T01:32:42.469Z,101195.12
2019-04-16T01:35:29.515Z,101195.84
2019-04-16T01:38:20.954Z,101196.47
2019-04-16T01:41:00.303Z,101199.31
2019-04-16T01:43:29.639Z,101199.83
2019-04-16T01:46:01.448Z,101195.54
2019-04-16T01:48:30.749Z,101194.49
2019-04-16T01:51:00.363Z,101193.02
2019-04-16T01:53:30.076Z,101198.24
2019-04-16T01:55:59.441Z,101197.77
2019-04-16T01:58:28.478Z,101200.34
2019-04-16T02:00:57.683Z,101197.27
2019-04-16T02:03:26.727Z,101190.77
2019-04-16T02:05:55.717Z,101196.97
2019-04-16T02:08:24.757Z,101194.88
2019-04-16T02:10:54.175Z,101188.27
2019-04-16T02:13:23.213Z,101184.76
2019-04-16T02:15:53.329Z,101186.09
2019-04-16T02:18:23.293Z,101188.77
2019-04-16T02:20:52.319Z,101193.59
2019-04-16T02:23:21.696Z,101194.05
2019-04-16T02:25:51.342Z,101192.64
2019-04-16T02:28:21.690Z,101194.38
2019-04-16T02:30:51.172Z,101189.05
2019-04-16T02:33:20.271Z,101188.73
2019-04-16T02:35:49.655Z,101185.73
2019-04-16T02:38:18.698Z,101184.17
2019-04-16T02:40:52.785Z,101180.12
2019-04-16T02:43:19.174Z,101176.45
2019-04-16T02:45:48.214Z,101182.33
2019-04-16T02:48:17.465Z,101183.06
2019-04-16T02:50:48.467Z,101185.17
2019-04-16T02:53:40.996Z,101181.73
2019-04-16T02:56:34.872Z,101183.89
2019-04-16T02:59:11.823Z,101184.53
2019-04-16T03:01:49.458Z,101187.42
2019-04-16T03:04:21.615Z,101184.89
2019-04-16T03:06:50.991Z,101170.17
2019-04-16T03:09:19.980Z,101166.13
2019-04-16T03:11:49.329Z,101173.67
2019-04-16T03:14:18.395Z,101166.26
2019-04-16T03:17:15.853Z,101171.31
2019-04-16T03:19:50.918Z,101175.78
2019-04-16T03:22:16.513Z,101158.13
2019-04-16T03:24:45.552Z,101164.00
2019-04-16T03:27:14.591Z,101166.45
2019-04-16T03:29:43.586Z,101170.13
2019-04-16T03:32:15.001Z,101161.34
2019-04-16T03:34:43.732Z,101163.95
2019-04-16T03:37:12.726Z,101156.32
2019-04-16T03:39:44.687Z,101155.90
2019-04-16T03:42:12.899Z,101152.59
2019-04-16T03:44:41.925Z,101148.87
2019-04-16T03:47:11.653Z,101158.56
2019-04-16T03:49:40.659Z,101156.81
2019-04-16T03:52:10.354Z,101155.75
2019-04-16T03:54:39.385Z,101158.84
2019-04-16T03:57:08.411Z,101152.12
2019-04-16T03:59:39.994Z,101155.81
2019-04-16T04:02:08.623Z,101152.12
2019-04-16T04:04:37.639Z,101139.82
2019-04-16T04:07:09.005Z,101137.88
2019-04-16T04:09:37.413Z,101145.02
2019-04-16T04:12:09.832Z,101144.67
2019-04-16T04:14:38.144Z,101142.86
2019-04-16T04:17:07.465Z,101146.23
2019-04-16T04:19:36.626Z,101147.00
2019-04-16T04:22:05.987Z,101154.91
2019-04-16T04:24:35.087Z,101149.37
2019-04-16T04:27:04.150Z,101143.86
2019-04-16T04:29:33.224Z,101145.52
2019-04-16T04:32:03.464Z,101142.86
2019-04-16T04:34:33.733Z,101147.34
2019-04-16T04:37:02.762Z,101148.45
2019-04-16T04:39:32.511Z,101148.25
2019-04-16T04:42:01.568Z,101156.94
2019-04-16T04:44:30.579Z,101156.38
2019-04-16T04:46:59.915Z,101164.83
2019-04-16T04:49:30.517Z,101159.50
2019-04-16T04:52:00.883Z,101155.61
2019-04-16T04:54:29.900Z,101155.81
2019-04-16T04:56:59.919Z,101158.70
2019-04-16T04:59:29.216Z,101157.77
2019-04-16T05:01:58.251Z,101158.83
2019-04-16T05:04:44.882Z,101164.80
2019-04-16T05:07:14.463Z,101160.30
2019-04-16T05:09:43.397Z,101164.93
2019-04-16T05:12:12.456Z,101163.16
2019-04-16T05:14:57.559Z,101165.27
2019-04-16T05:17:28.083Z,101148.32
2019-04-16T05:19:57.101Z,101152.54
2019-04-16T05:22:26.457Z,101153.23
2019-04-16T05:25:00.864Z,101151.70
2019-04-16T05:27:29.150Z,101149.16
2019-04-16T05:29:57.016Z,101155.97
2019-04-16T05:32:29.343Z,101152.03
2019-04-16T05:34:56.779Z,101153.92
2019-04-16T05:37:25.862Z,101161.23
2019-04-16T05:39:58.579Z,101160.45
2019-04-16T05:42:26.377Z,101158.12
2019-04-16T05:44:55.474Z,101147.46
2019-04-16T05:47:24.528Z,101152.57
2019-04-16T05:49:54.398Z,101143.98
2019-04-16T05:52:24.339Z,101146.98
2019-04-16T05:55:22.006Z,101153.55
2019-04-16T05:57:51.091Z,101146.05
2019-04-16T06:00:30.306Z,101149.72
2019-04-16T06:02:59.646Z,101155.22
2019-04-16T06:05:30.360Z,101151.20
2019-04-16T06:08:10.245Z,101150.38
2019-04-16T06:10:39.511Z,101153.67
2019-04-16T06:13:24.584Z,101153.39
2019-04-16T06:16:00.891Z,101161.18
2019-04-16T06:18:37.962Z,101157.31
2019-04-16T06:21:29.262Z,101154.80
2019-04-16T06:24:26.302Z,101155.19
2019-04-16T06:27:02.139Z,101161.14
2019-04-16T06:29:49.220Z,101160.52
2019-04-16T06:32:37.516Z,101159.94
2019-04-16T06:35:42.523Z,101151.67
2019-04-16T06:38:15.487Z,101164.77
2019-04-16T06:41:03.137Z,101156.50
2019-04-16T06:43:31.130Z,101160.01
2019-04-16T06:46:18.166Z,101159.78
2019-04-16T06:49:06.496Z,101158.05
2019-04-16T06:51:45.151Z,101160.45
2019-04-16T06:54:45.721Z,101165.20
2019-04-16T06:57:32.458Z,101162.92
2019-04-16T07:00:19.781Z,101163.86
2019-04-16T07:03:14.765Z,101161.05
2019-04-16T07:06:03.941Z,101159.77
2019-04-16T07:08:49.875Z,101165.95
2019-04-16T07:11:16.688Z,101165.80
2019-04-16T07:13:46.114Z,101170.38
2019-04-16T07:16:15.144Z,101165.83
2019-04-16T07:18:44.265Z,101169.84
2019-04-16T07:21:14.560Z,101168.47
2019-04-16T07:23:46.409Z,101162.73
2019-04-16T07:26:16.273Z,101159.99
2019-04-16T07:29:04.519Z,101161.78
2019-04-16T07:31:44.212Z,101165.94
2019-04-16T07:34:18.071Z,101165.94
2019-04-16T07:36:56.627Z,101168.66
2019-04-16T07:39:37.825Z,101159.50
2019-04-16T07:42:26.476Z,101160.33
2019-04-16T07:45:14.802Z,101149.86
2019-04-16T07:48:08.955Z,101159.06
2019-04-16T07:51:12.248Z,101154.38
2019-04-16T07:54:04.390Z,101163.13
2019-04-16T07:56:34.010Z,101158.75
2019-04-16T07:59:03.076Z,101164.66
2019-04-16T08:01:32.527Z,101168.16
2019-04-16T08:04:03.102Z,101165.95
2019-04-16T08:06:33.460Z,101167.16
2019-04-16T08:09:02.544Z,101163.80
2019-04-16T08:11:31.668Z,101164.25
2019-04-16T08:14:01.076Z,101164.66
2019-04-16T08:16:30.142Z,101165.55
2019-04-16T08:18:59.174Z,101156.10
2019-04-16T08:21:28.263Z,101161.42
2019-04-16T08:24:06.657Z,101163.95
2019-04-16T08:26:35.955Z,101160.08
2019-04-16T08:29:05.076Z,101160.94
2019-04-16T08:31:37.272Z,101153.88
2019-04-16T08:34:06.246Z,101144.27
2019-04-16T08:36:35.286Z,101160.13
2019-04-16T08:39:07.557Z,101157.17
2019-04-16T08:41:36.676Z,101160.16
2019-04-16T08:44:05.822Z,101156.83
2019-04-16T08:46:34.977Z,101157.12
2019-04-16T08:49:04.414Z,101152.23
2019-04-16T08:51:37.038Z,101159.17
2019-04-16T08:54:04.280Z,101147.06
2019-04-16T08:56:33.610Z,101154.89
2019-04-16T08:59:02.640Z,101154.97
2019-04-16T09:01:33.514Z,101143.98
2019-04-16T09:04:03.139Z,101138.76
2019-04-16T09:06:32.662Z,101149.31
2019-04-16T09:09:13.417Z,101151.70
2019-04-16T09:11:42.980Z,101148.72
2019-04-16T09:14:12.340Z,101151.53
2019-04-16T09:16:53.364Z,101146.73
2019-04-16T09:19:22.560Z,101145.77
2019-04-16T09:21:52.018Z,101141.20
2019-04-16T09:24:28.259Z,101144.93
2019-04-16T09:27:13.103Z,101147.24
2019-04-16T09:30:16.933Z,101147.48
2019-04-16T09:32:51.275Z,101145.66
2019-04-16T09:35:23.154Z,101150.07
2019-04-16T09:38:09.370Z,101151.67
2019-04-16T09:40:58.633Z,101131.97
2019-04-16T09:43:28.430Z,101148.11
2019-04-16T09:46:09.654Z,101151.66
2019-04-16T09:48:28.322Z,101154.05
2019-04-16T09:50:57.358Z,101162.39
2019-04-16T09:53:33.494Z,101161.98
2019-04-16T09:55:59.484Z,101163.98
2019-04-16T09:58:28.904Z,101164.61
2019-04-16T10:01:06.499Z,101153.39
2019-04-16T10:03:37.086Z,101157.80
2019-04-16T10:06:06.832Z,101150.67
2019-04-16T10:08:35.839Z,101156.27
2019-04-16T10:11:06.168Z,101160.98
2019-04-16T10:13:36.234Z,101162.78
2019-04-16T10:16:06.242Z,101161.54
2019-04-16T10:18:36.012Z,101161.20
2019-04-16T10:21:05.216Z,101165.05
2019-04-16T10:23:53.584Z,101154.09
2019-04-16T10:26:22.683Z,101167.23
2019-04-16T10:28:51.729Z,101163.30
2019-04-16T10:31:21.520Z,101166.53
2019-04-16T10:33:51.061Z,101161.09
2019-04-16T10:36:20.122Z,101159.80
2019-04-16T10:39:14.027Z,101161.80
2019-04-16T10:41:50.793Z,101160.64
2019-04-16T10:44:34.442Z,101158.88
2019-04-16T10:47:22.279Z,101164.39
2019-04-16T10:50:12.977Z,101160.50
2019-04-16T10:53:03.115Z,101168.47
2019-04-16T10:55:54.367Z,101160.48
2019-04-16T10:58:40.889Z,101156.88
2019-04-16T11:01:30.499Z,101158.86
2019-04-16T11:04:11.574Z,101153.38
2019-04-16T11:06:42.825Z,101155.73
2019-04-16T11:09:12.149Z,101152.55
2019-04-16T11:11:41.163Z,101149.98
2019-04-16T11:14:10.334Z,101157.88
2019-04-16T11:16:41.433Z,101155.30
2019-04-16T11:19:10.774Z,101157.59
2019-04-16T11:21:40.265Z,101157.56
2019-04-16T11:24:09.671Z,101165.25
2019-04-16T11:26:38.723Z,101150.67
2019-04-16T11:29:08.107Z,101157.33
2019-04-16T11:31:37.623Z,101155.41
2019-04-16T11:34:07.792Z,101149.13
2019-04-16T11:36:37.379Z,101157.08
2019-04-16T11:39:08.016Z,101146.94
2019-04-16T11:41:37.221Z,101154.42
2019-04-16T11:44:15.168Z,101155.42
2019-04-16T11:46:37.561Z,101148.14
2019-04-16T11:49:06.885Z,101149.25
2019-04-16T11:51:36.206Z,101153.97
2019-04-16T11:54:05.252Z,101156.77
2019-04-16T11:56:34.291Z,101160.20
2019-04-16T11:59:03.351Z,101162.92
2019-04-16T12:01:50.022Z,101152.19
2019-04-16T12:04:36.767Z,101159.74
2019-04-16T12:07:25.055Z,101158.06
2019-04-16T12:10:31.254Z,101161.84
2019-04-16T12:13:24.512Z,101156.60
2019-04-16T12:16:11.200Z,101152.77
2019-04-16T12:19:06.204Z,101156.97
2019-04-16T12:22:06.351Z,101154.73
2019-04-16T12:24:51.465Z,101159.88
2019-04-16T12:27:48.258Z,101156.50
2019-04-16T12:30:35.599Z,101166.23
2019-04-16T12:33:26.387Z,101162.05
2019-04-16T12:36:02.610Z,101163.53
2019-04-16T12:38:46.032Z,101169.23
2019-04-16T12:41:23.955Z,101170.17
2019-04-16T12:44:04.836Z,101170.17
2019-04-16T12:46:58.664Z,101167.94
2019-04-16T12:49:46.438Z,101173.30
2019-04-16T12:52:23.524Z,101167.81
2019-04-16T12:55:14.511Z,101170.52
2019-04-16T12:58:11.330Z,101172.05
2019-04-16T13:00:59.827Z,101170.22
2019-04-16T13:03:34.931Z,101176.78
2019-04-16T13:06:26.901Z,101176.02
2019-04-16T13:09:12.363Z,101167.52
2019-04-16T13:12:09.438Z,101171.41
2019-04-16T13:15:00.997Z,101174.45
2019-04-16T13:17:50.815Z,101175.02
2019-04-16T13:20:51.942Z,101169.23
2019-04-16T13:23:39.175Z,101173.95
2019-04-16T13:26:13.651Z,101178.45
2019-04-16T13:28:42.958Z,101186.67
2019-04-16T13:31:14.844Z,101183.38
2019-04-16T13:33:46.197Z,101176.09
2019-04-16T13:36:15.060Z,101182.76
2019-04-16T13:38:48.702Z,101180.89
2019-04-16T13:41:17.765Z,101178.17
2019-04-16T13:43:50.766Z,101177.80
2019-04-16T13:46:19.886Z,101185.00
2019-04-16T13:48:53.860Z,101182.27
2019-04-16T13:51:24.595Z,101180.83
2019-04-16T13:54:15.984Z,101185.70
2019-04-16T13:56:51.560Z,101182.44
2019-04-16T13:59:38.002Z,101186.23
2019-04-16T14:02:18.692Z,101191.66
2019-04-16T14:04:45.830Z,101189.52
2019-04-16T14:07:14.866Z,101191.72
2019-04-16T14:09:44.382Z,101186.00
2019-04-16T14:12:13.816Z,101191.97
2019-04-16T14:14:43.083Z,101190.67
2019-04-16T14:17:17.635Z,101196.11
2019-04-16T14:19:45.100Z,101188.23
2019-04-16T14:22:14.160Z,101196.66
2019-04-16T14:24:43.506Z,101194.08
2019-04-16T14:27:14.452Z,101190.15
2019-04-16T14:29:43.624Z,101187.42
2019-04-16T14:32:13.856Z,101189.85
2019-04-16T14:35:07.906Z,101193.77
2019-04-16T14:37:36.984Z,101198.20
2019-04-16T14:40:25.789Z,101191.95
2019-04-16T14:42:57.593Z,101196.84
2019-04-16T14:45:56.804Z,101197.99
2019-04-16T14:48:10.988Z,101201.33
2019-04-16T14:50:40.005Z,101196.10
2019-04-16T14:53:09.337Z,101195.07
2019-04-16T14:56:00.482Z,101200.82
2019-04-16T14:58:47.933Z,101201.56
2019-04-16T15:01:35.938Z,101196.94
2019-04-16T15:04:35.862Z,101197.77
2019-04-16T15:07:23.974Z,101202.55
2019-04-16T15:10:14.756Z,101203.70
2019-04-16T15:12:54.295Z,101204.02
2019-04-16T15:15:33.119Z,101201.23
2019-04-16T15:18:21.092Z,101210.41
2019-04-16T15:21:10.580Z,101214.47
2019-04-16T15:24:01.239Z,101211.55
2019-04-16T15:26:52.098Z,101221.17
2019-04-16T15:29:24.173Z,101215.70
2019-04-16T15:32:12.379Z,101221.86
2019-04-16T15:34:44.217Z,101231.25
2019-04-16T15:37:26.748Z,101231.48
2019-04-16T15:39:59.599Z,101234.08
2019-04-16T15:42:51.823Z,101233.85
2019-04-16T15:45:29.959Z,101235.21
2019-04-16T15:48:17.963Z,101240.44
2019-04-16T15:51:07.683Z,101238.39
2019-04-16T15:53:51.819Z,101237.41
2019-04-16T15:56:45.944Z,101232.09
2019-04-16T15:59:32.902Z,101243.85
2019-04-16T16:02:24.125Z,101242.20
2019-04-16T16:04:58.871Z,101242.20
2019-04-16T16:07:30.800Z,101247.40
2019-04-16T16:10:12.931Z,101251.59
2019-04-16T16:12:40.336Z,101255.13
2019-04-16T16:15:10.533Z,101255.95
2019-04-16T16:17:39.595Z,101264.95
2019-04-16T16:20:10.292Z,101264.22
2019-04-16T16:22:39.531Z,101263.59
2019-04-16T16:25:08.929Z,101268.81
2019-04-16T16:27:41.750Z,101268.09
2019-04-16T16:30:08.890Z,101265.14
2019-04-16T16:32:37.985Z,101270.34
2019-04-16T16:35:07.157Z,101256.42
2019-04-16T16:37:37.495Z,101277.57
2019-04-16T16:40:07.310Z,101282.69
2019-04-16T16:42:36.957Z,101281.88
2019-04-16T16:45:07.273Z,101288.86
2019-04-16T16:47:39.828Z,101289.64
2019-04-16T16:50:13.773Z,101290.39
2019-04-16T16:52:53.532Z,101289.05
2019-04-16T16:55:53.854Z,101290.97
2019-04-16T16:58:41.859Z,101285.52
2019-04-16T17:01:36.323Z,101286.38
2019-04-16T17:04:23.035Z,101293.27
2019-04-16T17:06:52.429Z,101288.19
2019-04-16T17:09:27.203Z,101295.60
2019-04-16T17:11:57.551Z,101292.16
2019-04-16T17:14:27.092Z,101292.19
2019-04-16T17:17:11.222Z,101297.28
2019-04-16T17:19:27.616Z,101297.03
2019-04-16T17:21:56.969Z,101303.80
2019-04-16T17:24:25.975Z,101305.48
2019-04-16T17:26:55.352Z,101309.72
2019-04-16T17:29:24.439Z,101311.06
2019-04-16T17:31:53.794Z,101315.05
2019-04-16T17:34:22.918Z,101318.47
2019-04-16T17:36:52.003Z,101321.51
2019-04-16T17:39:47.012Z,101285.58
2019-04-16T17:42:16.954Z,101323.71
2019-04-16T17:45:07.792Z,101324.08
2019-04-16T17:48:10.767Z,101324.77
2019-04-16T17:51:01.414Z,101329.34
2019-04-16T17:53:35.139Z,101329.14
2019-04-16T17:56:29.635Z,101327.05
2019-04-16T17:59:04.984Z,101329.86
2019-04-16T18:02:05.322Z,101327.30
2019-04-16T18:04:51.885Z,101330.85
2019-04-16T18:07:38.650Z,101334.09
2019-04-16T18:10:26.885Z,101338.03
2019-04-16T18:12:59.712Z,101345.80
2019-04-16T18:16:02.853Z,101345.86
2019-04-16T18:18:51.415Z,101350.69
2019-04-16T18:21:42.264Z,101352.52
2019-04-16T18:24:29.354Z,101350.45
2019-04-16T18:27:29.575Z,101354.97
2019-04-16T18:30:16.595Z,101361.82
2019-04-16T18:32:58.998Z,101357.56
2019-04-16T18:35:52.860Z,101362.74
2019-04-16T18:38:41.586Z,101364.77
2019-04-16T18:41:20.430Z,101371.45
2019-04-16T18:44:11.162Z,101369.53
2019-04-16T18:46:47.958Z,101371.05
2019-04-16T18:49:19.411Z,101380.66
2019-04-16T18:51:48.469Z,101383.41
2019-04-16T18:54:17.600Z,101384.47
2019-04-16T18:56:46.637Z,101384.21
2019-04-16T18:59:15.710Z,101393.03
2019-04-16T19:01:46.313Z,101396.38
2019-04-16T19:04:15.620Z,101396.56
2019-04-16T19:06:44.692Z,101395.17
2019-04-16T19:09:14.683Z,101397.09
2019-04-16T19:11:43.806Z,101404.13
2019-04-16T19:14:13.868Z,101404.47
2019-04-16T19:16:43.405Z,101407.20
2019-04-16T19:19:12.731Z,101413.27
2019-04-16T19:21:42.689Z,101418.38
2019-04-16T19:24:12.446Z,101419.77
2019-04-16T19:26:41.563Z,101427.55
2019-04-16T19:29:14.388Z,101428.25
2019-04-16T19:31:41.451Z,101429.38
2019-04-16T19:34:10.746Z,101439.16
2019-04-16T19:36:39.840Z,101436.33
2019-04-16T19:39:13.729Z,101440.75
2019-04-16T19:41:41.328Z,101444.48
2019-04-16T19:44:10.668Z,101438.13
2019-04-16T19:46:39.683Z,101447.44
2019-04-16T19:49:08.764Z,101446.28
2019-04-16T19:51:41.129Z,101445.97
2019-04-16T19:54:08.750Z,101449.03
2019-04-16T19:56:37.820Z,101455.07
2019-04-16T19:59:06.891Z,101450.23
2019-04-16T20:01:35.955Z,101453.42
2019-04-16T20:04:09.233Z,101452.32
2019-04-16T20:06:36.475Z,101458.87
2019-04-16T20:09:07.445Z,101463.47
2019-04-16T20:11:37.365Z,101465.31
2019-04-16T20:14:06.453Z,101467.37
2019-04-16T20:16:35.487Z,101464.36
2019-04-16T20:19:04.536Z,101469.02
2019-04-16T20:21:37.517Z,101476.57
2019-04-16T20:24:05.031Z,101473.23
2019-04-16T20:26:34.383Z,101473.53
2019-04-16T20:29:03.564Z,101483.09
2019-04-16T20:31:32.574Z,101480.92
2019-04-16T20:34:01.749Z,101482.43
2019-04-16T20:36:30.782Z,101483.09
2019-04-16T20:39:00.266Z,101483.58
2019-04-16T20:41:29.265Z,101488.79
2019-04-16T20:43:58.591Z,101488.15
2019-04-16T20:46:27.613Z,101495.38
2019-04-16T20:49:08.248Z,101490.52
2019-04-16T20:51:27.415Z,101491.53
2019-04-16T20:53:56.630Z,101493.03
2019-04-16T20:56:25.749Z,101494.55
2019-04-16T20:58:55.245Z,101489.53
2019-04-16T21:01:33.851Z,101497.58
2019-04-16T21:04:04.640Z,101497.92
2019-04-16T21:06:29.104Z,101498.56
2019-04-16T21:08:58.712Z,101498.25
2019-04-16T21:11:28.200Z,101501.58
2019-04-16T21:13:57.267Z,101504.97
2019-04-16T21:16:26.598Z,101504.64
2019-04-16T21:18:55.701Z,101503.30
2019-04-16T21:21:24.746Z,101503.30
2019-04-16T21:23:53.825Z,101502.97
2019-04-16T21:26:22.849Z,101506.30
2019-04-16T21:29:05.541Z,101513.03
2019-04-16T21:31:42.969Z,101503.27
2019-04-16T21:34:46.347Z,101494.86
2019-04-16T21:37:46.968Z,101503.28
2019-04-16T21:40:16.421Z,101502.58
2019-04-16T21:42:45.814Z,101506.61
2019-04-16T21:45:16.527Z,101516.36
2019-04-16T21:47:46.183Z,101516.36
2019-04-16T21:50:16.296Z,101511.83
2019-04-16T21:52:46.470Z,101520.04
2019-04-16T21:55:15.496Z,101520.04
2019-04-16T21:57:46.045Z,101527.08
2019-04-16T22:03:32.530Z,101533.75
2019-04-16T22:06:02.164Z,101533.75
2019-04-16T22:08:31.901Z,101534.98
2019-04-16T22:11:01.329Z,101545.20
2019-04-16T22:13:30.395Z,101536.83
2019-04-16T22:16:01.893Z,101540.52
2019-04-16T22:18:31.324Z,101544.19
2019-04-16T22:21:00.763Z,101547.74
2019-04-16T22:23:29.795Z,101548.29
2019-04-16T22:26:01.461Z,101549.31
2019-04-16T22:28:29.952Z,101547.27
2019-04-16T22:30:58.966Z,101548.64
2019-04-16T22:33:28.014Z,101547.64
2019-04-16T22:35:57.255Z,101551.33
2019-04-16T22:38:29.892Z,101551.97
2019-04-16T22:41:14.957Z,101552.80
2019-04-16T22:44:06.992Z,101552.60
2019-04-16T22:46:42.255Z,101550.11
2019-04-16T22:49:11.651Z,101541.73
2019-04-16T22:51:43.205Z,101549.63
2019-04-16T22:54:11.816Z,101549.95
2019-04-16T22:56:47.914Z,101551.45
2019-04-16T22:59:16.961Z,101555.33
2019-04-16T23:01:46.612Z,101551.65
2019-04-16T23:04:15.654Z,101554.10
2019-04-16T23:06:44.687Z,101559.67
2019-04-16T23:09:17.020Z,101555.59
2019-04-16T23:11:44.826Z,101554.25
2019-04-16T23:14:14.193Z,101553.52
2019-04-16T23:16:43.233Z,101555.54
2019-04-16T23:19:12.264Z,101561.48
2019-04-16T23:21:42.548Z,101556.94
2019-04-16T23:24:12.072Z,101559.11
2019-04-16T23:26:41.084Z,101557.92
2019-04-16T23:29:12.419Z,101560.05
2019-04-16T23:31:41.266Z,101564.33
2019-04-16T23:34:10.299Z,101566.34
2019-04-16T23:36:39.637Z,101567.88
2019-04-16T23:39:08.687Z,101571.00
2019-04-16T23:41:37.740Z,101560.19
2019-04-16T23:44:40.957Z,101562.36
2019-04-16T23:47:44.624Z,101566.21
2019-04-16T23:50:45.175Z,101567.93
2019-04-16T23:53:31.548Z,101564.08
2019-04-16T23:56:12.551Z,101548.65
2019-04-16T23:59:01.341Z,101564.05
